Airfield :
LOGIN :

Register | Disclaimer

   EN    FR    IT 

 










Legend :    VFR   Marginal VFR   IFR   Intensive IFR   Very Intensive IFR
Visi :
Ceiling :
>= 8 km
>= 3000ft
5 to 8 km
1000 to 3000 ft
1500m to 5 km
500 to 1000 ft
800 to 1500m
200 to 500 ft
< 800m
< 200 ft
Symbols :   Thunderstorms  Fog  Heavy snow  Heavy precipitations  Wind > 20 kt
SIGMETs :     Misc.  Thunderstorms  Icing  Turbulence  Mountain Waves  Volcanic Ashes







- Airport Elevation : 416 ft
- IATA code : OVD


LEAS - Asturias

CURRENT METAR :
  • 252230Z 08009KT 040V110 9999 SCT020 SCT028 10/06 Q1028 NOSIG

EXPIRED METARs :
  • 252200Z 08008KT 050V140 9999 BKN028 10/06 Q1028 NOSIG
  • 252130Z 08008KT 040V130 9999 BKN028 10/06 Q1028 NOSIG
  • 252100Z 08008KT 040V120 9999 BKN020 10/06 Q1028 NOSIG
  • 252030Z 08010KT 050V150 9999 BKN024 10/06 Q1028 NOSIG
  • 252000Z 08009KT 050V110 9999 BKN024 10/07 Q1028 NOSIG
  • 251930Z 08010KT 040V120 9999 FEW018 BKN024 10/07 Q1028 NOSIG

TAF TAF LEAS
Valid from the 25 at 21:00 until the 26 at 21:00 UTC


252000Z 2521/2621 13009KT 9999 BKN020 TX13/2613Z TN07/2606Z
BECMG 2607/2610 07012G22KT
TEMPO 2613/2616 06020G32KT
No reported NOTAMs for that airfield.
1 SIGMET reported for the Madrid FIR (LECM) :
 
Severe turbulence
LECM SIGMET 1 VALID 252015/260000 LEVA
LECM MADRID FIR/UIR SEV TURB FCST WI N3936 W00730 - N3955 W00103 - N3903 W00119 - N3849 W00702 - N3936 W00730 FL220/300 STNR WKN=



MET'MAP, your aeronautical weather chart ! - Copyright ORBIFLY December 2007 - Disclaimer

ORBIFLY MET'MAP TEAM :

Programming & Development : Alexandra Zaïnal
Concept & Development : Baudouin d'Aumeries
Co-Development & Prog : Marc-Olivier Méhu
Technical & hardware support : Manuel Goepfert

Contact : metmap@orbifly.com




SOURCES & CREDITS :

   NOAA